Time;durP1;ratioP1;P1;durP2;ratioP2;P2;SDS_P1;SDS_P2;PMS_P1;PMS_P2;Temp;Humidity;BMP_temperature;BMP_pressure;BME280_temperature;BME280_humidity;BME280_pressure;Samples;Min_cycle;Max_cycle;Signal;HPM_P1;HPM_P2
2022/01/23 00:00:21;;;;;;;53.58;32.13;;;7.10;99.90;;;;;;5074455;28;20028;-76
2022/01/23 00:02:50;;;;;;;45.85;30.02;;;7.20;99.90;;;;;;5090347;28;20025;-74
2022/01/23 00:05:18;;;;;;;51.08;30.48;;;7.20;99.90;;;;;;5074710;28;20024;-77
2022/01/23 00:07:45;;;;;;;47.08;29.85;;;7.30;99.90;;;;;;5074823;28;20025;-74
2022/01/23 00:10:11;;;;;;;46.88;30.25;;;7.00;99.90;;;;;;5093381;28;20118;-77
2022/01/23 00:12:49;;;;;;;47.30;31.15;;;6.90;99.90;;;;;;5094570;28;20059;-75
2022/01/23 00:18:00;;;;;;;44.50;29.20;;;6.60;99.90;;;;;;5094773;28;20476;-76
2022/01/23 00:20:25;;;;;;;51.45;29.98;;;6.50;99.90;;;;;;5094164;28;20043;-77
2022/01/23 00:22:56;;;;;;;47.78;29.42;;;6.40;99.90;;;;;;5094549;28;20024;-74
2022/01/23 00:30:54;;;;;;;44.88;28.65;;;6.40;99.90;;;;;;5072849;28;20082;-76
2022/01/23 00:33:22;;;;;;;45.30;29.05;;;6.30;99.90;;;;;;5072524;28;20071;-74
2022/01/23 00:35:48;;;;;;;52.95;30.13;;;6.20;99.90;;;;;;5074046;28;20040;-73
2022/01/23 00:38:15;;;;;;;44.30;30.02;;;6.20;99.90;;;;;;5074097;28;20070;-76
2022/01/23 00:40:43;;;;;;;45.92;30.40;;;6.30;99.90;;;;;;5074007;28;20028;-73
2022/01/23 00:43:25;;;;;;;41.65;30.05;;;6.30;99.90;;;;;;5072517;28;20028;-77
2022/01/23 00:45:56;;;;;;;49.47;29.48;;;6.20;99.90;;;;;;5073823;28;20028;-76
2022/01/23 00:48:27;;;;;;;43.23;29.90;;;6.10;99.90;;;;;;5072732;28;20091;-77
2022/01/23 00:50:53;;;;;;;43.35;29.88;;;6.10;99.90;;;;;;5072282;28;20081;-77
2022/01/23 00:53:19;;;;;;;47.78;28.40;;;6.20;99.90;;;;;;5072482;28;20028;-77
2022/01/23 00:55:46;;;;;;;52.25;29.85;;;6.20;99.90;;;;;;5073549;28;20029;-77
2022/01/23 00:58:13;;;;;;;40.72;27.35;;;6.20;99.90;;;;;;5073281;28;20025;-76
2022/01/23 01:00:41;;;;;;;45.28;28.98;;;6.30;99.90;;;;;;5072190;28;20024;-76
2022/01/23 01:03:07;;;;;;;46.00;27.58;;;6.40;99.90;;;;;;5072380;28;20465;-76
2022/01/23 01:05:34;;;;;;;43.40;28.73;;;6.40;99.90;;;;;;5073645;28;20028;-73
2022/01/23 01:08:04;;;;;;;44.80;28.05;;;6.50;99.90;;;;;;5073478;28;20066;-76
2022/01/23 01:10:38;;;;;;;49.80;28.02;;;6.50;99.90;;;;;;5082115;28;20028;-74
2022/01/23 01:13:06;;;;;;;43.45;26.75;;;6.30;99.90;;;;;;5072452;28;20481;-76
2022/01/23 01:15:51;;;;;;;44.55;26.73;;;6.30;99.90;;;;;;5072830;28;20072;-74
2022/01/23 01:32:04;;;;;;;42.05;25.55;;;6.10;99.90;;;;;;5091678;28;20553;-76
2022/01/23 01:35:02;;;;;;;45.00;26.73;;;6.10;99.90;;;;;;5091996;28;20032;-77
2022/01/23 01:37:18;;;;;;;44.53;26.65;;;6.10;99.90;;;;;;5091879;28;20126;-77
2022/01/23 01:39:46;;;;;;;40.72;25.20;;;6.30;99.90;;;;;;5075275;28;20110;-77
2022/01/23 01:42:13;;;;;;;36.45;26.00;;;6.60;99.90;;;;;;5091845;28;20066;-77
2022/01/23 01:44:39;;;;;;;41.95;26.52;;;6.60;99.90;;;;;;5091835;28;20487;-76
2022/01/23 01:47:31;;;;;;;41.92;26.75;;;6.80;99.90;;;;;;5076292;28;20024;-77
2022/01/23 01:50:15;;;;;;;42.72;27.25;;;7.00;99.90;;;;;;5091957;28;20111;-77
2022/01/23 01:52:41;;;;;;;39.58;27.17;;;7.10;99.90;;;;;;5091773;28;20074;-77
2022/01/23 01:55:11;;;;;;;38.85;26.73;;;7.10;99.90;;;;;;5091312;28;20040;-75
2022/01/23 01:57:51;;;;;;;42.70;25.75;;;7.20;99.90;;;;;;5091747;28;20572;-77
2022/01/23 02:00:56;;;;;;;35.30;25.08;;;7.10;99.90;;;;;;5059049;28;20130;-77
2022/01/23 02:08:52;;;;;;;51.88;26.77;;;6.50;99.90;;;;;;5092568;28;20063;-77
2022/01/23 02:11:47;;;;;;;43.70;25.42;;;6.50;99.90;;;;;;5071478;28;20108;-77
2022/01/23 02:22:42;;;;;;;41.97;27.83;;;6.10;99.90;;;;;;5071018;28;20025;-77
2022/01/23 02:55:48;;;;;;;42.92;29.58;;;7.10;99.90;;;;;;5091761;28;20033;-77
2022/01/23 02:58:20;;;;;;;45.50;28.73;;;7.00;99.90;;;;;;5075818;28;20025;-77
2022/01/23 03:00:50;;;;;;;43.55;28.55;;;7.10;99.90;;;;;;5091747;28;20094;-76
2022/01/23 03:03:56;;;;;;;43.47;26.42;;;7.00;99.90;;;;;;5070690;28;20033;-76
2022/01/23 03:31:04;;;;;;;44.55;29.25;;;6.70;99.90;;;;;;5095796;28;20449;-77
2022/01/23 03:33:29;;;;;;;48.10;29.27;;;6.40;99.90;;;;;;5095256;28;20036;-77
2022/01/23 03:35:54;;;;;;;45.92;28.55;;;6.40;99.90;;;;;;5095163;28;20039;-77
2022/01/23 03:38:20;;;;;;;46.45;29.83;;;6.50;99.90;;;;;;5094299;28;20380;-77
2022/01/23 03:40:46;;;;;;;53.85;29.75;;;6.60;99.90;;;;;;5094496;28;20415;-77
2022/01/23 03:43:14;;;;;;;51.13;31.45;;;6.40;99.90;;;;;;5094053;28;20020;-77
2022/01/23 03:45:59;;;;;;;48.95;30.83;;;6.40;99.90;;;;;;5094074;28;20024;-77
2022/01/23 03:50:53;;;;;;;51.25;29.70;;;6.60;99.90;;;;;;5093466;28;20039;-76
2022/01/23 03:53:31;;;;;;;44.78;29.42;;;6.30;99.90;;;;;;5093885;28;20621;-77
2022/01/23 03:55:57;;;;;;;50.38;29.67;;;6.20;99.90;;;;;;5093718;28;20028;-76
2022/01/23 03:58:23;;;;;;;49.08;29.58;;;6.20;99.90;;;;;;5092754;28;20085;-77
2022/01/23 04:00:49;;;;;;;52.28;30.27;;;6.10;99.90;;;;;;5093650;28;20038;-77
2022/01/23 04:03:18;;;;;;;47.80;30.08;;;6.20;99.90;;;;;;5093762;28;20485;-77
2022/01/23 04:05:44;;;;;;;54.90;31.40;;;6.20;99.90;;;;;;5093497;28;20025;-77
2022/01/23 04:08:10;;;;;;;46.38;29.90;;;6.10;99.90;;;;;;5093666;28;20036;-77
2022/01/23 04:10:36;;;;;;;59.53;31.92;;;6.20;99.90;;;;;;5080141;28;20070;-76
2022/01/23 04:14:07;;;;;;;51.60;30.60;;;6.20;99.90;;;;;;5073324;28;20031;-76
2022/01/23 04:32:58;;;;;;;49.65;30.05;;;6.90;99.90;;;;;;5072720;28;20028;-76
2022/01/23 04:46:31;;;;;;;50.97;29.50;;;6.80;99.90;;;;;;5073822;28;20033;-75
2022/01/23 04:49:07;;;;;;;44.88;29.23;;;6.90;99.90;;;;;;5072209;28;20024;-77
2022/01/23 04:59:49;;;;;;;48.47;30.80;;;6.60;99.90;;;;;;5072215;28;20033;-76
2022/01/23 05:04:58;;;;;;;52.97;31.83;;;6.70;99.90;;;;;;5073690;28;20121;-75
2022/01/23 05:07:46;;;;;;;54.45;31.38;;;6.90;99.90;;;;;;5073557;28;20036;-77
2022/01/23 05:10:14;;;;;;;48.83;31.15;;;6.90;99.90;;;;;;5084225;28;20036;-76
2022/01/23 05:12:56;;;;;;;55.73;31.97;;;6.90;99.90;;;;;;5092360;28;20020;-75
2022/01/23 05:15:22;;;;;;;48.90;31.70;;;6.80;99.90;;;;;;5092354;28;20460;-74
2022/01/23 05:17:49;;;;;;;55.00;31.45;;;6.80;99.90;;;;;;5092101;28;20020;-77
2022/01/23 05:20:18;;;;;;;53.60;32.35;;;6.60;99.90;;;;;;5093402;28;20036;-75
2022/01/23 05:22:49;;;;;;;59.45;31.73;;;6.60;99.90;;;;;;5091988;28;20024;-75
2022/01/23 05:25:23;;;;;;;58.50;30.13;;;6.40;99.90;;;;;;5093466;28;20038;-75
2022/01/23 05:27:53;;;;;;;53.53;31.45;;;6.60;99.90;;;;;;5092006;28;20469;-77
2022/01/23 05:30:20;;;;;;;47.97;31.20;;;6.60;99.90;;;;;;5093396;28;20032;-73
2022/01/23 05:32:45;;;;;;;60.88;32.40;;;6.70;99.90;;;;;;5091588;28;20024;-73
2022/01/23 05:35:17;;;;;;;53.58;31.48;;;6.90;99.90;;;;;;5092001;28;20039;-75
2022/01/23 05:37:43;;;;;;;53.03;30.80;;;6.90;99.90;;;;;;5092046;28;20028;-77
2022/01/23 05:40:18;;;;;;;51.58;32.83;;;6.80;99.90;;;;;;5091975;28;20377;-77
2022/01/23 05:42:47;;;;;;;44.38;29.00;;;6.60;99.90;;;;;;5091925;28;20073;-76
2022/01/23 05:45:13;;;;;;;58.33;31.75;;;6.60;99.90;;;;;;5091881;28;20119;-76
2022/01/23 05:48:11;;;;;;;60.35;32.42;;;6.70;99.90;;;;;;5081764;28;20404;-75
2022/01/23 05:50:53;;;;;;;59.10;31.07;;;6.50;99.90;;;;;;5091614;28;20435;-75
2022/01/23 05:53:50;;;;;;;59.75;32.17;;;6.20;99.90;;;;;;5069705;28;20439;-75
2022/01/23 05:56:33;;;;;;;51.25;31.05;;;6.20;99.90;;;;;;5091688;28;20024;-74
2022/01/23 05:59:20;;;;;;;55.88;32.70;;;6.20;99.90;;;;;;5092323;28;20046;-77
2022/01/23 06:01:47;;;;;;;50.20;32.08;;;6.30;99.90;;;;;;5091652;28;20032;-77
2022/01/23 06:04:17;;;;;;;59.97;33.63;;;6.30;99.90;;;;;;5091725;28;20031;-77
2022/01/23 06:06:50;;;;;;;53.10;32.03;;;6.20;99.90;;;;;;5091777;28;20032;-76
2022/01/23 06:09:19;;;;;;;50.63;31.65;;;6.10;99.90;;;;;;5088343;28;20021;-75
2022/01/23 06:11:45;;;;;;;56.10;33.25;;;6.10;99.90;;;;;;5071300;28;20056;-76
2022/01/23 06:14:11;;;;;;;60.38;33.90;;;6.50;99.90;;;;;;5071624;28;20036;-77
2022/01/23 06:16:38;;;;;;;56.80;35.03;;;6.30;99.90;;;;;;5071600;28;20025;-77
2022/01/23 06:19:26;;;;;;;54.90;32.60;;;6.40;99.90;;;;;;5072501;28;20477;-77
2022/01/23 06:22:11;;;;;;;59.45;33.53;;;6.40;99.90;;;;;;5072504;28;20062;-77
2022/01/23 06:24:50;;;;;;;53.33;33.30;;;6.50;99.90;;;;;;5075526;28;20029;-77
2022/01/23 06:27:29;;;;;;;68.35;34.13;;;6.60;99.90;;;;;;5091902;28;20066;-77
2022/01/23 06:29:55;;;;;;;59.05;31.85;;;6.70;99.90;;;;;;5095264;28;20032;-78
2022/01/23 06:32:21;;;;;;;57.17;33.95;;;6.80;99.90;;;;;;5078336;28;20105;-77
2022/01/23 06:34:47;;;;;;;58.80;34.47;;;6.70;99.90;;;;;;5078537;28;20081;-76
2022/01/23 06:37:13;;;;;;;50.60;32.22;;;6.60;99.90;;;;;;5095569;28;20024;-77
2022/01/23 06:39:39;;;;;;;53.90;34.63;;;6.50;99.90;;;;;;5095340;28;20426;-77
2022/01/23 06:42:09;;;;;;;58.45;35.72;;;6.50;99.90;;;;;;5095257;28;20032;-77
2022/01/23 06:44:35;;;;;;;62.97;36.05;;;6.70;99.90;;;;;;5096213;28;20099;-77
2022/01/23 06:47:01;;;;;;;58.22;35.30;;;6.70;99.90;;;;;;5095334;28;20034;-77
2022/01/23 06:49:27;;;;;;;59.28;34.83;;;6.70;99.90;;;;;;5094844;28;20469;-77
2022/01/23 06:51:53;;;;;;;61.17;35.85;;;7.00;99.90;;;;;;5094945;28;20028;-77
2022/01/23 06:54:19;;;;;;;57.63;34.53;;;6.80;99.90;;;;;;5078196;28;20050;-76
2022/01/23 06:56:46;;;;;;;58.28;36.30;;;6.60;99.90;;;;;;5095191;28;20380;-76
2022/01/23 06:59:12;;;;;;;57.47;34.83;;;6.50;99.90;;;;;;5077822;28;20039;-76
2022/01/23 07:01:43;;;;;;;58.10;35.07;;;6.60;99.90;;;;;;5094825;28;20057;-76
2022/01/23 07:04:34;;;;;;;61.95;36.80;;;6.60;99.90;;;;;;5081413;28;20070;-77
2022/01/23 07:06:59;;;;;;;63.03;37.30;;;6.70;99.90;;;;;;5096359;28;20075;-76
2022/01/23 07:09:51;;;;;;;64.57;37.92;;;6.60;99.90;;;;;;5071406;28;20125;-76
2022/01/23 07:12:20;;;;;;;72.55;37.22;;;6.40;99.90;;;;;;5075945;28;20040;-77
2022/01/23 07:14:48;;;;;;;64.40;37.47;;;6.50;99.90;;;;;;5075391;28;20040;-76
2022/01/23 07:17:41;;;;;;;63.83;37.28;;;6.70;99.90;;;;;;5074332;28;20035;-76
2022/01/23 07:20:20;;;;;;;62.67;37.83;;;6.90;99.90;;;;;;5074030;28;20055;-76
2022/01/23 07:22:47;;;;;;;63.38;37.10;;;6.80;99.90;;;;;;5057881;28;20021;-77
2022/01/23 07:25:12;;;;;;;62.08;35.78;;;6.70;99.90;;;;;;5057503;28;20024;-76
2022/01/23 07:27:48;;;;;;;57.13;35.90;;;6.50;99.90;;;;;;5088991;28;20527;-77
2022/01/23 07:30:32;;;;;;;57.80;36.25;;;6.60;99.90;;;;;;5094041;28;20070;-76
2022/01/23 07:32:58;;;;;;;62.45;37.08;;;6.70;99.90;;;;;;5077124;28;20036;-77
2022/01/23 07:35:23;;;;;;;62.00;37.92;;;6.60;99.90;;;;;;5095377;28;20039;-77
2022/01/23 07:37:49;;;;;;;59.70;36.65;;;6.60;99.90;;;;;;5094288;28;20028;-76
2022/01/23 07:40:20;;;;;;;59.47;36.40;;;6.80;99.90;;;;;;5095322;28;20070;-77
2022/01/23 07:42:50;;;;;;;64.00;37.40;;;6.70;99.90;;;;;;5077252;28;20035;-76
2022/01/23 07:45:34;;;;;;;65.70;36.97;;;6.70;99.90;;;;;;5095499;28;20046;-76
2022/01/23 07:48:10;;;;;;;67.75;37.90;;;6.60;99.90;;;;;;5094180;28;20047;-76
2022/01/23 07:50:51;;;;;;;59.17;37.83;;;6.90;99.90;;;;;;5093881;28;20043;-77
2022/01/23 07:53:25;;;;;;;74.43;38.60;;;6.70;99.90;;;;;;5093770;28;20028;-76
2022/01/23 07:56:05;;;;;;;56.92;35.28;;;6.80;99.90;;;;;;5092365;28;20078;-76
2022/01/23 07:58:49;;;;;;;68.70;38.03;;;6.70;99.90;;;;;;5074811;28;20036;-76
2022/01/23 08:01:31;;;;;;;59.33;36.50;;;6.60;99.90;;;;;;5058645;28;20036;-76
2022/01/23 08:04:29;;;;;;;57.30;37.28;;;6.70;99.90;;;;;;5053543;28;20131;-76
2022/01/23 08:07:09;;;;;;;69.20;38.38;;;6.70;99.90;;;;;;5073512;28;20092;-76
2022/01/23 08:09:42;;;;;;;65.78;38.00;;;6.60;99.90;;;;;;5079709;28;20020;-74
2022/01/23 08:12:08;;;;;;;57.90;38.22;;;6.70;99.90;;;;;;5094428;28;20039;-76
2022/01/23 08:14:34;;;;;;;61.60;35.90;;;6.70;99.90;;;;;;5094678;28;20042;-76
2022/01/23 08:16:59;;;;;;;60.67;37.25;;;6.70;99.90;;;;;;5094637;28;20381;-77
2022/01/23 08:19:25;;;;;;;66.38;37.67;;;6.70;99.90;;;;;;5093087;28;20035;-76
2022/01/23 08:21:51;;;;;;;60.10;37.92;;;6.50;99.90;;;;;;5094723;28;20034;-76
2022/01/23 08:24:16;;;;;;;65.55;38.20;;;6.50;99.90;;;;;;5094361;28;20066;-77
2022/01/23 08:26:42;;;;;;;65.97;38.00;;;6.50;99.90;;;;;;5093761;28;20095;-75
2022/01/23 08:29:09;;;;;;;63.90;38.85;;;6.60;99.90;;;;;;5093888;28;20119;-76
2022/01/23 08:31:35;;;;;;;69.22;38.63;;;6.60;99.90;;;;;;5094324;28;20016;-76
2022/01/23 08:34:01;;;;;;;60.22;37.85;;;6.70;99.90;;;;;;5094152;28;20042;-76
2022/01/23 08:36:26;;;;;;;63.47;39.38;;;6.60;99.90;;;;;;5093000;28;20031;-76
2022/01/23 08:38:53;;;;;;;65.05;38.97;;;6.50;99.90;;;;;;5094493;28;20024;-76
2022/01/23 08:43:48;;;;;;;63.92;39.75;;;6.40;99.90;;;;;;5096219;28;20047;-76
2022/01/23 08:46:14;;;;;;;76.88;40.97;;;6.40;99.90;;;;;;5093249;28;20107;-77
2022/01/23 08:48:41;;;;;;;68.35;40.08;;;6.50;99.90;;;;;;5094076;28;20055;-77
2022/01/23 08:51:08;;;;;;;69.28;40.70;;;6.30;99.90;;;;;;5092497;28;20381;-77
2022/01/23 08:53:34;;;;;;;72.00;38.47;;;6.30;99.90;;;;;;5073414;28;20031;-77
2022/01/23 08:55:59;;;;;;;68.57;40.05;;;6.40;99.90;;;;;;5076071;28;20024;-77
2022/01/23 08:58:26;;;;;;;70.47;39.00;;;6.40;99.90;;;;;;5093951;28;20028;-77
2022/01/23 09:00:52;;;;;;;70.68;40.45;;;6.20;99.90;;;;;;5089606;28;20043;-76
2022/01/23 09:03:17;;;;;;;70.25;40.38;;;6.00;99.90;;;;;;5073666;28;20025;-76
2022/01/23 09:05:43;;;;;;;68.55;40.90;;;6.10;99.90;;;;;;5073428;28;20051;-77
2022/01/23 09:08:09;;;;;;;63.92;40.13;;;6.30;99.90;;;;;;5073578;28;20048;-76
2022/01/23 09:10:52;;;;;;;66.68;40.63;;;6.60;99.90;;;;;;5086887;28;20032;-76
2022/01/23 09:16:02;;;;;;;68.88;40.15;;;6.60;99.90;;;;;;5093297;28;20046;-76
2022/01/23 09:18:28;;;;;;;65.55;39.63;;;6.60;99.90;;;;;;5092408;28;20016;-76
2022/01/23 09:20:53;;;;;;;75.13;40.10;;;6.60;99.90;;;;;;5092944;28;20081;-76
2022/01/23 09:23:19;;;;;;;71.32;40.58;;;6.50;99.90;;;;;;5093401;28;20028;-76
2022/01/23 09:25:45;;;;;;;70.20;40.55;;;6.70;99.90;;;;;;5091663;28;20419;-76
2022/01/23 09:28:13;;;;;;;65.20;41.22;;;7.00;99.90;;;;;;5093223;28;20468;-76
2022/01/23 09:30:47;;;;;;;65.90;39.25;;;7.00;99.90;;;;;;5093414;28;20438;-76
2022/01/23 09:33:13;;;;;;;65.25;39.40;;;6.70;99.90;;;;;;5092798;28;20032;-76
2022/01/23 09:35:39;;;;;;;66.55;40.58;;;6.70;99.90;;;;;;5092818;28;20042;-76
2022/01/23 09:38:05;;;;;;;60.75;37.60;;;6.80;99.90;;;;;;5092570;28;20020;-76
2022/01/23 09:40:31;;;;;;;69.20;39.92;;;6.60;99.90;;;;;;5093195;28;20105;-76
2022/01/23 09:43:06;;;;;;;66.68;39.47;;;6.50;99.90;;;;;;5091405;28;20020;-75
2022/01/23 09:45:34;;;;;;;69.78;39.45;;;6.50;99.90;;;;;;5093046;28;20024;-74
2022/01/23 09:48:02;;;;;;;69.72;40.72;;;6.50;99.90;;;;;;5089051;28;20431;-74
2022/01/23 09:50:30;;;;;;;68.13;41.50;;;6.80;99.90;;;;;;5072476;28;20063;-74
2022/01/23 09:52:57;;;;;;;65.75;39.28;;;6.90;99.90;;;;;;5072356;28;20035;-76
2022/01/23 09:55:25;;;;;;;64.80;39.40;;;6.70;99.90;;;;;;5072567;28;20097;-75
2022/01/23 09:57:51;;;;;;;63.25;39.13;;;6.80;99.90;;;;;;5089521;28;20024;-74
2022/01/23 10:00:25;;;;;;;67.80;38.80;;;6.80;99.90;;;;;;5092944;28;20169;-76
2022/01/23 10:02:52;;;;;;;74.72;40.20;;;6.80;99.90;;;;;;5092796;28;20039;-76
2022/01/23 10:05:19;;;;;;;67.07;39.65;;;6.90;99.90;;;;;;5091515;28;20024;-75
2022/01/23 10:07:46;;;;;;;67.88;39.40;;;6.70;99.90;;;;;;5092701;28;20024;-76
2022/01/23 10:10:19;;;;;;;65.93;39.03;;;6.80;99.90;;;;;;5081693;28;20024;-76
2022/01/23 10:12:52;;;;;;;66.80;40.20;;;6.90;99.90;;;;;;5072159;28;20049;-76
2022/01/23 10:15:19;;;;;;;66.65;40.20;;;6.90;99.90;;;;;;5072409;28;20448;-77
2022/01/23 10:17:45;;;;;;;69.40;39.75;;;7.00;99.90;;;;;;5072585;28;20039;-76
2022/01/23 10:20:12;;;;;;;68.18;41.40;;;7.10;99.90;;;;;;5072442;28;20086;-76
2022/01/23 10:22:41;;;;;;;65.10;40.42;;;7.00;99.90;;;;;;5071934;28;20041;-77
2022/01/23 10:25:09;;;;;;;70.75;40.42;;;7.00;99.90;;;;;;5072348;28;20064;-76
2022/01/23 10:28:02;;;;;;;74.15;37.97;;;7.10;99.90;;;;;;5087343;28;20031;-76
2022/01/23 10:30:40;;;;;;;65.50;37.10;;;7.10;99.90;;;;;;5092368;28;20040;-77
2022/01/23 10:33:14;;;;;;;56.38;36.00;;;7.00;99.90;;;;;;5090895;28;20028;-76
2022/01/23 10:36:01;;;;;;;62.90;36.35;;;7.10;99.90;;;;;;5092431;28;20056;-74
2022/01/23 10:38:47;;;;;;;56.53;36.53;;;7.10;99.90;;;;;;5092501;28;20035;-74
2022/01/23 10:50:01;;;;;;;48.42;32.60;;;7.00;99.90;;;;;;5092226;28;20043;-74
2022/01/23 10:52:49;;;;;;;63.65;34.72;;;7.00;99.90;;;;;;5090966;28;20499;-77
2022/01/23 10:55:20;;;;;;;52.80;31.75;;;7.10;99.90;;;;;;5088810;28;20074;-75
2022/01/23 10:57:50;;;;;;;52.72;32.80;;;7.00;99.90;;;;;;5092361;28;20477;-76
2022/01/23 11:00:28;;;;;;;52.40;32.25;;;7.00;99.90;;;;;;5092247;28;20042;-77
2022/01/23 11:02:56;;;;;;;59.75;33.85;;;7.10;99.90;;;;;;5086387;28;20024;-76
2022/01/23 11:05:38;;;;;;;52.38;32.65;;;7.30;99.90;;;;;;5074222;28;20465;-75
2022/01/23 11:08:30;;;;;;;56.78;33.05;;;7.20;99.90;;;;;;5072936;28;20461;-74
2022/01/23 11:11:04;;;;;;;55.30;32.75;;;7.40;99.90;;;;;;5092723;28;20036;-77
2022/01/23 11:19:27;;;;;;;52.70;32.78;;;7.70;99.90;;;;;;5095414;28;20028;-75
2022/01/23 11:21:54;;;;;;;50.63;31.83;;;7.80;99.90;;;;;;5095435;28;20036;-76
2022/01/23 11:24:22;;;;;;;51.25;34.05;;;7.80;99.90;;;;;;5095496;28;20071;-74
2022/01/23 11:26:47;;;;;;;51.65;32.72;;;7.70;99.90;;;;;;5095321;28;20032;-76
2022/01/23 11:29:16;;;;;;;45.58;30.65;;;7.50;99.90;;;;;;5073839;28;20066;-77
2022/01/23 11:31:43;;;;;;;46.33;31.75;;;7.30;99.90;;;;;;5073942;28;20493;-77
2022/01/23 11:34:12;;;;;;;46.60;31.17;;;7.20;99.90;;;;;;5080890;28;20043;-77
2022/01/23 11:36:38;;;;;;;53.30;31.20;;;7.30;99.90;;;;;;5083041;28;20043;-77
2022/01/23 11:39:14;;;;;;;46.00;30.27;;;7.50;99.90;;;;;;5075056;28;20480;-77
2022/01/23 11:56:31;;;;;;;52.80;32.22;;;7.70;99.90;;;;;;5094911;28;20036;-75
2022/01/23 11:59:15;;;;;;;60.88;31.00;;;7.90;99.90;;;;;;5093058;28;20034;-75
2022/01/23 12:01:43;;;;;;;52.95;30.60;;;7.60;99.90;;;;;;5094805;28;20035;-76
2022/01/23 12:04:09;;;;;;;43.22;27.30;;;7.70;99.90;;;;;;5094640;28;20024;-75
2022/01/23 12:06:38;;;;;;;51.05;28.95;;;7.60;99.90;;;;;;5094894;28;20039;-76
2022/01/23 12:09:10;;;;;;;42.97;27.70;;;7.70;99.90;;;;;;5095021;28;20032;-75
2022/01/23 12:11:42;;;;;;;39.72;27.98;;;7.60;99.90;;;;;;5094572;28;20024;-76
2022/01/23 12:16:56;;;;;;;42.65;28.75;;;7.70;99.90;;;;;;5094865;28;20031;-76
2022/01/23 12:19:24;;;;;;;50.47;27.33;;;7.70;99.90;;;;;;5093622;28;20101;-76
2022/01/23 12:21:53;;;;;;;60.08;35.67;;;7.90;99.90;;;;;;5093496;28;20415;-75
2022/01/23 12:24:22;;;;;;;85.07;49.92;;;8.00;99.90;;;;;;5093347;28;20127;-75
2022/01/23 12:26:49;;;;;;;65.88;42.10;;;7.90;99.90;;;;;;5095074;28;20373;-75
2022/01/23 12:29:22;;;;;;;58.85;37.72;;;7.70;99.90;;;;;;5096385;28;20032;-76
2022/01/23 12:31:48;;;;;;;42.55;29.48;;;7.80;99.90;;;;;;5094376;28;20039;-75
2022/01/23 12:34:14;;;;;;;47.40;30.05;;;7.70;99.90;;;;;;5093954;28;20032;-76
2022/01/23 12:36:43;;;;;;;40.63;25.92;;;7.70;99.90;;;;;;5094491;28;20031;-75
2022/01/23 12:39:09;;;;;;;44.10;26.45;;;7.70;99.90;;;;;;5093080;28;20484;-76
2022/01/23 12:41:36;;;;;;;40.80;25.27;;;7.80;99.90;;;;;;5094112;28;20031;-75
2022/01/23 12:44:27;;;;;;;40.92;25.45;;;7.80;99.90;;;;;;5094271;28;20671;-76
2022/01/23 12:47:02;;;;;;;44.05;26.27;;;7.70;99.90;;;;;;5093596;28;20044;-75
2022/01/23 12:49:30;;;;;;;48.63;27.75;;;7.70;99.90;;;;;;5093804;28;20032;-75
2022/01/23 12:52:05;;;;;;;46.15;27.95;;;7.80;99.90;;;;;;5094015;28;20036;-75
2022/01/23 12:54:33;;;;;;;39.60;26.27;;;7.90;99.90;;;;;;5093821;28;20480;-76
2022/01/23 12:57:14;;;;;;;38.00;27.05;;;8.10;99.90;;;;;;5093742;28;20042;-76
2022/01/23 12:59:42;;;;;;;38.33;25.98;;;8.10;99.90;;;;;;5093779;28;20149;-76
2022/01/23 13:02:11;;;;;;;39.50;25.15;;;7.90;99.90;;;;;;5093453;28;20328;-76
2022/01/23 13:04:50;;;;;;;35.78;24.73;;;7.80;99.90;;;;;;5092661;28;20107;-76
2022/01/23 13:07:28;;;;;;;42.90;26.08;;;7.90;99.90;;;;;;5093633;28;20047;-75
2022/01/23 13:10:05;;;;;;;41.30;24.75;;;7.80;99.90;;;;;;5085195;28;20424;-76
2022/01/23 13:12:47;;;;;;;37.70;24.67;;;8.00;99.90;;;;;;5073402;28;20115;-75
2022/01/23 13:15:26;;;;;;;36.88;25.50;;;8.00;99.90;;;;;;5073197;28;20040;-75
2022/01/23 13:31:44;;;;;;;36.47;25.90;;;7.60;99.90;;;;;;5091168;28;20548;-75
2022/01/23 13:34:25;;;;;;;34.88;24.17;;;7.70;99.90;;;;;;5088718;28;20055;-75
2022/01/23 13:36:58;;;;;;;39.85;24.98;;;7.80;99.90;;;;;;5072875;28;20036;-75
2022/01/23 13:39:31;;;;;;;33.45;23.25;;;7.80;99.90;;;;;;5072711;28;20040;-76
2022/01/23 13:42:04;;;;;;;41.15;25.23;;;7.70;99.90;;;;;;5071504;28;20366;-75
2022/01/23 13:52:41;;;;;;;41.13;28.17;;;7.80;99.90;;;;;;5072606;28;20037;-75
2022/01/23 14:00:41;;;;;;;44.30;27.88;;;7.80;99.90;;;;;;5052730;28;20048;-76
2022/01/23 14:03:09;;;;;;;46.45;28.05;;;7.90;99.90;;;;;;5071265;28;20531;-75
2022/01/23 14:05:35;;;;;;;48.03;29.65;;;8.20;99.90;;;;;;5072698;28;20017;-75
2022/01/23 14:08:03;;;;;;;42.85;30.10;;;8.40;99.90;;;;;;5072341;28;20469;-75
2022/01/23 14:10:37;;;;;;;43.25;28.55;;;8.40;99.90;;;;;;5085526;28;20036;-76
2022/01/23 14:13:10;;;;;;;38.92;28.48;;;8.00;99.90;;;;;;5092860;28;20086;-76
2022/01/23 14:15:46;;;;;;;41.70;27.90;;;8.10;99.90;;;;;;5092496;28;20094;-75
2022/01/23 14:18:14;;;;;;;38.97;26.73;;;8.30;99.90;;;;;;5092419;28;20028;-75
2022/01/23 14:20:43;;;;;;;45.20;26.40;;;8.20;99.90;;;;;;5092611;28;20048;-75
2022/01/23 14:23:22;;;;;;;43.33;28.48;;;8.10;99.90;;;;;;5091273;28;20448;-75
2022/01/23 14:25:53;;;;;;;41.03;27.67;;;8.00;99.90;;;;;;5092748;28;20093;-76
2022/01/23 14:28:51;;;;;;;45.67;28.88;;;8.20;99.90;;;;;;5092309;28;20469;-75
2022/01/23 14:31:23;;;;;;;42.83;28.08;;;8.00;99.90;;;;;;5079348;28;20047;-76
2022/01/23 14:33:57;;;;;;;40.88;27.65;;;8.10;99.90;;;;;;5091394;28;20040;-75
2022/01/23 14:36:25;;;;;;;45.60;28.55;;;8.10;99.90;;;;;;5092879;28;20395;-76
2022/01/23 14:39:12;;;;;;;47.72;28.83;;;8.00;99.90;;;;;;5092636;28;20071;-76
2022/01/23 14:41:43;;;;;;;46.95;31.02;;;7.80;99.90;;;;;;5092448;28;20451;-75
2022/01/23 14:44:20;;;;;;;43.57;29.33;;;7.90;99.90;;;;;;5094951;28;20430;-75
2022/01/23 14:46:48;;;;;;;49.15;30.02;;;8.10;99.90;;;;;;5096493;28;20661;-76
2022/01/23 14:49:22;;;;;;;50.20;31.52;;;8.20;99.90;;;;;;5096110;28;20035;-75
2022/01/23 14:51:48;;;;;;;44.85;29.17;;;8.20;99.90;;;;;;5096461;28;20097;-74
2022/01/23 14:54:17;;;;;;;45.15;28.95;;;8.30;99.90;;;;;;5095897;28;20032;-76
2022/01/23 14:56:43;;;;;;;47.33;29.17;;;8.50;99.90;;;;;;5096395;28;20035;-75
2022/01/23 14:59:13;;;;;;;33.20;22.63;;;8.30;99.90;;;;;;5095924;28;20465;-75
2022/01/23 15:01:41;;;;;;;39.65;25.70;;;8.20;99.90;;;;;;5095196;28;20476;-75
2022/01/23 15:04:09;;;;;;;51.75;33.08;;;7.80;99.90;;;;;;5095763;28;20103;-75
2022/01/23 15:06:40;;;;;;;49.72;32.17;;;7.90;99.90;;;;;;5096244;28;20469;-76
2022/01/23 15:09:08;;;;;;;49.08;32.60;;;7.70;99.90;;;;;;5094322;28;20104;-75
2022/01/23 15:11:36;;;;;;;53.65;33.45;;;7.70;99.90;;;;;;5075577;28;20481;-75
2022/01/23 15:14:03;;;;;;;50.67;31.08;;;7.70;99.90;;;;;;5075578;28;20497;-75
2022/01/23 15:16:29;;;;;;;50.97;32.15;;;7.80;99.90;;;;;;5075470;28;20112;-75
2022/01/23 15:18:54;;;;;;;51.90;31.17;;;7.80;99.90;;;;;;5075572;28;20476;-76
2022/01/23 15:21:20;;;;;;;48.25;30.55;;;7.70;99.90;;;;;;5075229;28;20036;-76
2022/01/23 15:23:46;;;;;;;47.95;32.22;;;7.90;99.90;;;;;;5075425;28;20036;-76
2022/01/23 15:26:12;;;;;;;52.22;34.35;;;7.80;99.90;;;;;;5078560;28;20108;-76
2022/01/23 15:28:38;;;;;;;69.13;40.83;;;7.80;99.90;;;;;;5095646;28;20032;-75
2022/01/23 15:31:04;;;;;;;70.75;41.67;;;7.90;99.90;;;;;;5095632;28;20024;-75
2022/01/23 15:33:29;;;;;;;69.22;41.72;;;8.00;99.90;;;;;;5094162;28;20032;-76
2022/01/23 15:35:55;;;;;;;92.03;49.40;;;8.10;99.90;;;;;;5095239;28;20114;-76
2022/01/23 15:38:21;;;;;;;68.60;35.42;;;8.10;99.90;;;;;;5095377;28;20035;-75
2022/01/23 15:40:49;;;;;;;62.25;33.65;;;8.20;99.90;;;;;;5095074;28;20028;-75
2022/01/23 15:43:15;;;;;;;57.25;36.00;;;8.30;99.90;;;;;;5095458;28;20020;-74
2022/01/23 15:45:42;;;;;;;56.47;37.17;;;8.30;99.90;;;;;;5095145;28;20499;-75
2022/01/23 15:48:08;;;;;;;53.35;33.08;;;8.30;99.90;;;;;;5095299;28;20116;-76
2022/01/23 15:50:35;;;;;;;47.55;31.60;;;8.30;99.90;;;;;;5095446;28;20035;-76
2022/01/23 15:53:01;;;;;;;54.20;31.40;;;8.30;99.90;;;;;;5095291;28;20043;-76
2022/01/23 15:55:28;;;;;;;55.28;32.72;;;8.00;99.90;;;;;;5094659;28;20034;-75
2022/01/23 15:57:55;;;;;;;47.60;32.67;;;8.10;99.90;;;;;;5095253;28;20028;-76
2022/01/23 16:00:22;;;;;;;58.40;37.80;;;8.00;99.90;;;;;;5093641;28;20035;-76
2022/01/23 16:02:48;;;;;;;41.28;26.15;;;8.00;99.90;;;;;;5095274;28;20039;-76
2022/01/23 16:05:16;;;;;;;38.70;22.85;;;8.00;99.90;;;;;;5095025;28;20040;-75
2022/01/23 16:07:43;;;;;;;30.00;18.05;;;7.80;99.90;;;;;;5095324;28;20035;-74
2022/01/23 16:10:10;;;;;;;29.20;18.17;;;8.00;99.90;;;;;;5084119;28;20021;-75
2022/01/23 16:12:37;;;;;;;26.92;16.52;;;8.10;99.90;;;;;;5074740;28;20035;-76